PAA3704 SAEZ-SUMU
Flight info
| Callsign | PAA3704 |
|---|---|
| Flight time | 0h 33m |
| Altitude | 17000 |
| Route | DORVO1J DORVO A305 TOKAM |
| Aircraft | A320/M-SDE3FGHIRWY/LB1 |
Departure
| Time | 2026-05-01 07:52 |
|---|---|
| Airport | Ezeiza International Airport - Ministro Pistarini (SAEZ) |
Arrival
| Time | 2026-05-01 08:25 |
|---|---|
| Airport | Carrasco General Cesáreo L. Berisso International Airport (SUMU) |
| Time | Latitude | Longitude | Altitude | Speed | Heading |
|---|---|---|---|---|---|
| 2026-05-01 07:51 | -34.74687 | -58.57242 | 3825 ft | 250 kts | 302° |
| 2026-05-01 07:52 | -34.74241 | -58.61536 | 5790 ft | 275 kts | 260° |
| 2026-05-01 07:52 | -34.74951 | -58.63728 | 6768 ft | 280 kts | 252° |
| 2026-05-01 07:52 | -34.75728 | -58.65916 | 7716 ft | 284 kts | 252° |
| 2026-05-01 07:53 | -34.77377 | -58.70352 | 9518 ft | 295 kts | 243° |
| 2026-05-01 07:53 | -34.78758 | -58.72249 | 10338 ft | 308 kts | 222° |
| 2026-05-01 07:53 | -34.80672 | -58.73501 | 11164 ft | 320 kts | 200° |
| 2026-05-01 07:53 | -34.82927 | -58.73887 | 11701 ft | 342 kts | 181° |
| 2026-05-01 07:54 | -34.87842 | -58.72751 | 12703 ft | 372 kts | 161° |
| 2026-05-01 07:55 | -34.94479 | -58.67584 | 14823 ft | 389 kts | 133° |
| 2026-05-01 07:55 | -34.97543 | -58.62105 | 16121 ft | 396 kts | 112° |
| 2026-05-01 07:56 | -34.99098 | -58.52335 | 16935 ft | 380 kts | 82° |
| 2026-05-01 07:56 | -34.98863 | -58.45975 | 16943 ft | 374 kts | 84° |
| 2026-05-01 07:57 | -34.98806 | -58.42804 | 16943 ft | 374 kts | 84° |
| 2026-05-01 07:57 | -34.98707 | -58.36455 | 16949 ft | 374 kts | 84° |
| 2026-05-01 07:58 | -34.98586 | -58.30106 | 16954 ft | 374 kts | 84° |
| 2026-05-01 07:58 | -34.98438 | -58.23766 | 16963 ft | 374 kts | 83° |
| 2026-05-01 07:59 | -34.98281 | -58.17415 | 16957 ft | 375 kts | 83° |
| 2026-05-01 07:59 | -34.98121 | -58.11060 | 16962 ft | 375 kts | 83° |
| 2026-05-01 08:00 | -34.97801 | -57.98351 | 16979 ft | 375 kts | 84° |
| 2026-05-01 08:01 | -34.96577 | -57.89112 | 16968 ft | 362 kts | 58° |
| 2026-05-01 08:01 | -34.95332 | -57.86541 | 16967 ft | 353 kts | 46° |
| 2026-05-01 08:01 | -34.93792 | -57.84231 | 16966 ft | 351 kts | 44° |
| 2026-05-01 08:02 | -34.90672 | -57.79649 | 16971 ft | 351 kts | 44° |
| 2026-05-01 08:02 | -34.89111 | -57.77358 | 16959 ft | 352 kts | 44° |
| 2026-05-01 08:03 | -34.85989 | -57.72767 | 16982 ft | 352 kts | 44° |
| 2026-05-01 08:03 | -34.84427 | -57.70471 | 16982 ft | 352 kts | 44° |
| 2026-05-01 08:03 | -34.81297 | -57.65881 | 16990 ft | 352 kts | 44° |
| 2026-05-01 08:04 | -34.78163 | -57.61298 | 16991 ft | 352 kts | 44° |
| 2026-05-01 08:04 | -34.75032 | -57.56721 | 16992 ft | 352 kts | 43° |
| 2026-05-01 08:05 | -34.72458 | -57.51605 | 16989 ft | 366 kts | 67° |
| 2026-05-01 08:05 | -34.71991 | -57.48538 | 16988 ft | 374 kts | 83° |
| 2026-05-01 08:05 | -34.72138 | -57.45363 | 16986 ft | 378 kts | 92° |
| 2026-05-01 08:06 | -34.72692 | -57.39004 | 16981 ft | 378 kts | 92° |
| 2026-05-01 08:06 | -34.73230 | -57.32636 | 16983 ft | 379 kts | 92° |
| 2026-05-01 08:07 | -34.73755 | -57.26259 | 16985 ft | 379 kts | 92° |
| 2026-05-01 08:07 | -34.74272 | -57.19879 | 16992 ft | 379 kts | 92° |
| 2026-05-01 08:08 | -34.74530 | -57.16693 | 16993 ft | 379 kts | 92° |
| 2026-05-01 08:08 | -34.75050 | -57.10318 | 16997 ft | 379 kts | 92° |
| 2026-05-01 08:09 | -34.75571 | -57.03972 | 16777 ft | 372 kts | 92° |
| 2026-05-01 08:09 | -34.75824 | -57.00871 | 16526 ft | 365 kts | 92° |
| 2026-05-01 08:09 | -34.76070 | -56.97825 | 16276 ft | 361 kts | 92° |
| 2026-05-01 08:10 | -34.76547 | -56.91838 | 15779 ft | 356 kts | 92° |
| 2026-05-01 08:10 | -34.77018 | -56.85885 | 15278 ft | 352 kts | 92° |
| 2026-05-01 08:11 | -34.77477 | -56.79995 | 14772 ft | 348 kts | 92° |
| 2026-05-01 08:11 | -34.77934 | -56.74199 | 14282 ft | 340 kts | 93° |
| 2026-05-01 08:12 | -34.79347 | -56.68782 | 13776 ft | 336 kts | 117° |
| 2026-05-01 08:12 | -34.80450 | -56.66297 | 13528 ft | 332 kts | 117° |
| 2026-05-01 08:12 | -34.82602 | -56.61378 | 12927 ft | 329 kts | 116° |
| 2026-05-01 08:13 | -34.83672 | -56.58917 | 12559 ft | 328 kts | 116° |
| 2026-05-01 08:13 | -34.84727 | -56.56487 | 12370 ft | 321 kts | 116° |
| 2026-05-01 08:13 | -34.86782 | -56.51749 | 11964 ft | 309 kts | 116° |
| 2026-05-01 08:14 | -34.87765 | -56.49491 | 11837 ft | 293 kts | 116° |
| 2026-05-01 08:14 | -34.88698 | -56.47349 | 11582 ft | 282 kts | 116° |
| 2026-05-01 08:14 | -34.89607 | -56.45255 | 11222 ft | 279 kts | 115° |
| 2026-05-01 08:14 | -34.90506 | -56.43182 | 10978 ft | 275 kts | 115° |
| 2026-05-01 08:15 | -34.91397 | -56.41127 | 10714 ft | 273 kts | 115° |
| 2026-05-01 08:15 | -34.93145 | -56.37082 | 10165 ft | 270 kts | 115° |
| 2026-05-01 08:15 | -34.94020 | -56.35066 | 9874 ft | 268 kts | 115° |
| 2026-05-01 08:16 | -34.94887 | -56.33066 | 9547 ft | 268 kts | 115° |
| 2026-05-01 08:16 | -34.95780 | -56.30999 | 8826 ft | 284 kts | 115° |
| 2026-05-01 08:16 | -34.96706 | -56.28856 | 8316 ft | 282 kts | 115° |
| 2026-05-01 08:16 | -34.97614 | -56.26754 | 7786 ft | 278 kts | 114° |
| 2026-05-01 08:17 | -34.98512 | -56.24678 | 7236 ft | 276 kts | 114° |
| 2026-05-01 08:17 | -34.99403 | -56.22620 | 6684 ft | 273 kts | 114° |
| 2026-05-01 08:17 | -35.00286 | -56.20576 | 6131 ft | 271 kts | 114° |
| 2026-05-01 08:17 | -35.01159 | -56.18548 | 5585 ft | 269 kts | 114° |
| 2026-05-01 08:18 | -35.02020 | -56.16539 | 5124 ft | 264 kts | 114° |
| 2026-05-01 08:18 | -35.03306 | -56.12651 | 4842 ft | 238 kts | 90° |
| 2026-05-01 08:19 | -35.02793 | -56.09006 | 4334 ft | 209 kts | 63° |
| 2026-05-01 08:19 | -35.02289 | -56.07372 | 3995 ft | 202 kts | 63° |
| 2026-05-01 08:19 | -35.01805 | -56.05795 | 3726 ft | 195 kts | 63° |
| 2026-05-01 08:19 | -35.01283 | -56.04301 | 3445 ft | 185 kts | 50° |
| 2026-05-01 08:20 | -35.00389 | -56.03281 | 3193 ft | 172 kts | 24° |
| 2026-05-01 08:20 | -34.99298 | -56.02896 | 2967 ft | 158 kts | 1° |
| 2026-05-01 08:20 | -34.98242 | -56.02913 | 2775 ft | 145 kts | 356° |
| 2026-05-01 08:20 | -34.97278 | -56.02922 | 2584 ft | 135 kts | 353° |
| 2026-05-01 08:21 | -34.96351 | -56.02928 | 2400 ft | 136 kts | 353° |
| 2026-05-01 08:21 | -34.95417 | -56.02937 | 2223 ft | 131 kts | 360° |
| 2026-05-01 08:21 | -34.94519 | -56.02948 | 2048 ft | 128 kts | 0° |
| 2026-05-01 08:21 | -34.93628 | -56.02960 | 1875 ft | 128 kts | 0° |
| 2026-05-01 08:22 | -34.92734 | -56.02971 | 1710 ft | 128 kts | 0° |
| 2026-05-01 08:22 | -34.91837 | -56.02981 | 1533 ft | 129 kts | 1° |
| 2026-05-01 08:22 | -34.90935 | -56.02992 | 1364 ft | 130 kts | 0° |
| 2026-05-01 08:22 | -34.90022 | -56.03009 | 1192 ft | 132 kts | 359° |
| 2026-05-01 08:23 | -34.89101 | -56.03038 | 1023 ft | 132 kts | 360° |
| 2026-05-01 08:23 | -34.88179 | -56.03055 | 827 ft | 132 kts | 1° |
| 2026-05-01 08:23 | -34.87259 | -56.03058 | 639 ft | 132 kts | 1° |
| 2026-05-01 08:23 | -34.86343 | -56.03053 | 486 ft | 132 kts | 0° |
| 2026-05-01 08:24 | -34.85424 | -56.03068 | 317 ft | 132 kts | 360° |
| 2026-05-01 08:24 | -34.84506 | -56.03078 | 127 ft | 132 kts | 0° |
| 2026-05-01 08:24 | -34.83624 | -56.03088 | 72 ft | 114 kts | 0° |
| 2026-05-01 08:24 | -34.82996 | -56.03094 | 94 ft | 72 kts | 359° |
| 2026-05-01 08:25 | -34.82665 | -56.03096 | 101 ft | 29 kts | 0° |
| 2026-05-01 08:25 | -34.82526 | -56.03051 | 103 ft | 18 kts | 62° |
| 2026-05-01 08:25 | -34.82526 | -56.02900 | 106 ft | 18 kts | 122° |
| 2026-05-01 08:25 | -34.82651 | -56.02862 | 103 ft | 21 kts | 180° |
| 2026-05-01 08:26 | -34.82814 | -56.02864 | 99 ft | 25 kts | 179° |
| 2026-05-01 08:26 | -34.83003 | -56.02863 | 93 ft | 25 kts | 180° |
| 2026-05-01 08:26 | -34.83174 | -56.02860 | 90 ft | 27 kts | 180° |
| 2026-05-01 08:26 | -34.83359 | -56.02856 | 85 ft | 25 kts | 179° |
| 2026-05-01 08:27 | -34.83529 | -56.02856 | 82 ft | 25 kts | 181° |
| 2026-05-01 08:27 | -34.83705 | -56.02855 | 70 ft | 26 kts | 178° |
| 2026-05-01 08:27 | -34.83878 | -56.02842 | 69 ft | 18 kts | 169° |
| 2026-05-01 08:27 | -34.83969 | -56.02763 | 68 ft | 16 kts | 119° |
| 2026-05-01 08:28 | -34.84000 | -56.02632 | 70 ft | 17 kts | 101° |
| 2026-05-01 08:28 | -34.84047 | -56.02503 | 66 ft | 14 kts | 116° |
| 2026-05-01 08:28 | -34.84116 | -56.02447 | 63 ft | 6 kts | 176° |
| 2026-05-01 08:28 | -34.84117 | -56.02447 | 71 ft | 0 kts | 177° |